Time;durP1;ratioP1;P1;durP2;ratioP2;P2;SDS_P1;SDS_P2;PMS_P1;PMS_P2;Temp;Humidity;BMP_temperature;BMP_pressure;BME280_temperature;BME280_humidity;BME280_pressure;Samples;Min_cycle;Max_cycle;Signal;HPM_P1;HPM_P2
2024/03/06 00:00:00;;;;;;;7.90;4.47;;;3.30;99.90;;;;;;5013700;28;20484;-75
2024/03/06 00:02:26;;;;;;;12.18;4.70;;;3.30;99.90;;;;;;5013636;28;20076;-76
2024/03/06 00:04:51;;;;;;;10.07;4.90;;;3.30;99.90;;;;;;5012224;28;20109;-75
2024/03/06 00:07:17;;;;;;;8.38;5.05;;;3.30;99.90;;;;;;5013904;28;20149;-75
2024/03/06 00:09:43;;;;;;;7.68;4.35;;;3.20;99.90;;;;;;5012383;28;20022;-75
2024/03/06 00:12:08;;;;;;;6.80;4.50;;;3.20;99.90;;;;;;5013520;28;20022;-76
2024/03/06 00:14:36;;;;;;;8.30;4.88;;;3.10;99.90;;;;;;5012303;28;20073;-75
2024/03/06 00:17:04;;;;;;;11.32;3.80;;;3.10;99.90;;;;;;5012285;28;20571;-75
2024/03/06 00:19:30;;;;;;;12.10;5.50;;;3.10;99.90;;;;;;5011258;28;20030;-75
2024/03/06 00:21:55;;;;;;;11.73;4.90;;;3.10;99.90;;;;;;5013084;28;20072;-75
2024/03/06 00:24:22;;;;;;;8.70;5.07;;;3.00;99.90;;;;;;5011900;28;20053;-75
2024/03/06 00:26:48;;;;;;;7.05;4.68;;;3.00;99.90;;;;;;5013347;28;20101;-75
2024/03/06 00:29:14;;;;;;;8.43;4.40;;;3.00;99.90;;;;;;5013109;28;20112;-74
2024/03/06 00:31:44;;;;;;;11.05;5.05;;;2.90;99.90;;;;;;5012118;28;20404;-75
2024/03/06 00:34:11;;;;;;;7.18;4.18;;;2.90;99.90;;;;;;5013473;28;20018;-75
2024/03/06 00:36:37;;;;;;;10.48;5.47;;;2.90;99.90;;;;;;5013229;28;20108;-76
2024/03/06 00:39:04;;;;;;;9.93;5.15;;;2.90;99.90;;;;;;5012900;28;20453;-76
2024/03/06 00:41:30;;;;;;;9.65;5.50;;;3.00;99.90;;;;;;5012922;28;20052;-75
2024/03/06 00:43:56;;;;;;;12.30;5.32;;;2.90;99.90;;;;;;5011646;28;20022;-74
2024/03/06 00:46:22;;;;;;;10.55;4.45;;;2.90;99.90;;;;;;5012897;28;20033;-74
2024/03/06 00:48:48;;;;;;;7.40;4.85;;;2.90;99.90;;;;;;5012538;28;20056;-77
2024/03/06 00:51:13;;;;;;;8.57;5.50;;;2.80;99.90;;;;;;5013015;28;20041;-75
2024/03/06 00:53:39;;;;;;;11.63;4.70;;;2.70;99.90;;;;;;5012949;28;20053;-75
2024/03/06 00:56:05;;;;;;;9.43;4.75;;;2.70;99.90;;;;;;5012706;28;20399;-75
2024/03/06 00:58:30;;;;;;;9.02;4.90;;;2.60;99.90;;;;;;5012843;28;20029;-75
2024/03/06 01:00:58;;;;;;;8.95;4.90;;;2.70;99.90;;;;;;5012837;28;20109;-76
2024/03/06 01:03:24;;;;;;;8.25;4.05;;;2.70;99.90;;;;;;5013216;28;20028;-75
2024/03/06 01:05:49;;;;;;;12.65;5.38;;;2.60;99.90;;;;;;5013129;28;20030;-75
2024/03/06 01:08:17;;;;;;;9.88;5.78;;;2.70;99.90;;;;;;5011398;28;20551;-75
2024/03/06 01:10:43;;;;;;;9.55;4.22;;;2.60;99.90;;;;;;5011481;28;20026;-76
2024/03/06 01:13:10;;;;;;;8.23;4.88;;;2.60;99.90;;;;;;5012450;28;20030;-75
2024/03/06 01:15:36;;;;;;;8.23;4.68;;;2.50;99.90;;;;;;5012593;28;20061;-76
2024/03/06 01:18:03;;;;;;;9.82;5.32;;;2.50;99.90;;;;;;5011281;28;20022;-76
2024/03/06 01:20:29;;;;;;;9.75;4.82;;;2.50;99.90;;;;;;5011531;28;20025;-76
2024/03/06 01:22:54;;;;;;;11.65;5.10;;;2.50;99.90;;;;;;5012639;28;20109;-74
2024/03/06 01:25:20;;;;;;;7.35;3.70;;;2.40;99.90;;;;;;5011538;28;20040;-75
2024/03/06 01:27:48;;;;;;;10.82;5.75;;;2.40;99.90;;;;;;5011726;28;20424;-75
2024/03/06 01:30:13;;;;;;;9.55;4.60;;;2.30;99.90;;;;;;5011395;28;20108;-75
2024/03/06 01:32:39;;;;;;;8.15;4.13;;;2.30;99.90;;;;;;5013114;28;20101;-74
2024/03/06 01:35:06;;;;;;;9.13;5.07;;;2.30;99.90;;;;;;5012588;28;20026;-73
2024/03/06 01:37:32;;;;;;;9.68;4.90;;;2.30;99.90;;;;;;5014417;28;20029;-75
2024/03/06 01:39:57;;;;;;;10.82;4.93;;;2.20;99.90;;;;;;5013602;28;20026;-75
2024/03/06 01:42:23;;;;;;;13.25;4.90;;;2.20;99.90;;;;;;5014323;28;20025;-74
2024/03/06 01:44:49;;;;;;;8.50;4.95;;;2.20;99.90;;;;;;5014062;28;20026;-74
2024/03/06 01:47:15;;;;;;;10.43;4.93;;;2.30;99.90;;;;;;5013663;28;20022;-75
2024/03/06 01:49:41;;;;;;;11.43;5.45;;;2.30;99.90;;;;;;5014128;28;20046;-75
2024/03/06 01:52:11;;;;;;;8.10;4.70;;;2.30;99.90;;;;;;5013880;28;20022;-77
2024/03/06 01:54:37;;;;;;;12.50;5.40;;;2.20;99.90;;;;;;5014299;28;20072;-75
2024/03/06 01:57:04;;;;;;;9.60;5.28;;;2.20;99.90;;;;;;5014525;28;20057;-75
2024/03/06 01:59:30;;;;;;;10.95;5.47;;;2.20;99.90;;;;;;5014520;28;20101;-74
2024/03/06 02:01:56;;;;;;;8.35;4.97;;;2.10;99.90;;;;;;5012841;28;20053;-74
2024/03/06 02:04:23;;;;;;;8.32;4.82;;;2.20;99.90;;;;;;5020357;28;20049;-75
2024/03/06 02:06:49;;;;;;;15.77;5.68;;;2.20;99.90;;;;;;5022677;28;20018;-75
2024/03/06 02:09:15;;;;;;;11.65;5.32;;;2.10;99.90;;;;;;5010591;28;20046;-75
2024/03/06 02:11:41;;;;;;;11.85;4.70;;;2.10;99.90;;;;;;5010458;28;20061;-75
2024/03/06 02:14:09;;;;;;;7.05;4.57;;;2.10;99.90;;;;;;5012079;28;20571;-75
2024/03/06 02:16:36;;;;;;;9.15;4.45;;;2.20;99.90;;;;;;5012047;28;20076;-75
2024/03/06 02:19:01;;;;;;;7.72;4.68;;;2.10;99.90;;;;;;5010607;28;20481;-76
2024/03/06 02:21:27;;;;;;;10.68;4.80;;;2.10;99.90;;;;;;5011688;28;20025;-76
2024/03/06 02:23:54;;;;;;;6.00;4.57;;;2.10;99.90;;;;;;5011875;28;20018;-76
2024/03/06 02:26:20;;;;;;;9.02;4.45;;;2.10;99.90;;;;;;5010614;28;20041;-75
2024/03/06 02:28:51;;;;;;;14.30;6.22;;;2.10;99.90;;;;;;5010432;28;20026;-75
2024/03/06 02:31:17;;;;;;;8.75;4.78;;;2.20;99.90;;;;;;5011615;28;20061;-75
2024/03/06 02:33:47;;;;;;;12.20;5.40;;;2.20;99.90;;;;;;5011706;28;20084;-75
2024/03/06 02:36:14;;;;;;;6.97;4.32;;;2.20;99.90;;;;;;5010420;28;20034;-75
2024/03/06 02:38:40;;;;;;;13.73;5.28;;;2.20;99.90;;;;;;5011668;28;20018;-75
2024/03/06 02:41:06;;;;;;;9.18;5.43;;;2.30;99.90;;;;;;5011721;28;20077;-75
2024/03/06 02:43:33;;;;;;;8.07;4.70;;;2.30;99.90;;;;;;5014487;28;20101;-75
2024/03/06 02:45:58;;;;;;;11.82;5.72;;;2.20;99.90;;;;;;5015248;28;20026;-74
2024/03/06 02:48:24;;;;;;;9.27;5.68;;;2.20;99.90;;;;;;5014992;28;20037;-75
2024/03/06 02:50:50;;;;;;;13.63;5.88;;;2.20;99.90;;;;;;5013998;28;20030;-75
2024/03/06 02:53:16;;;;;;;11.63;5.22;;;2.10;99.90;;;;;;5015172;28;20060;-74
2024/03/06 02:55:41;;;;;;;14.63;6.85;;;2.00;99.90;;;;;;5013929;28;20030;-75
2024/03/06 02:58:07;;;;;;;11.13;4.72;;;1.90;99.90;;;;;;5013607;28;20022;-75
2024/03/06 03:00:32;;;;;;;12.30;4.43;;;1.90;99.90;;;;;;5014857;28;20073;-75
2024/03/06 03:02:58;;;;;;;10.55;5.15;;;1.90;99.90;;;;;;5013465;28;20512;-75
2024/03/06 03:05:24;;;;;;;9.77;5.13;;;1.80;99.90;;;;;;5013430;28;20025;-75
2024/03/06 03:07:50;;;;;;;9.13;4.38;;;1.80;99.90;;;;;;5014759;28;20030;-76
2024/03/06 03:10:16;;;;;;;10.13;5.13;;;1.80;99.90;;;;;;5013382;28;20026;-76
2024/03/06 03:12:42;;;;;;;17.52;5.90;;;1.80;99.90;;;;;;5014220;28;20499;-76
2024/03/06 03:15:09;;;;;;;11.32;5.30;;;1.80;99.90;;;;;;5014541;28;20085;-75
2024/03/06 03:17:35;;;;;;;10.90;4.85;;;1.80;99.90;;;;;;5014481;28;20480;-75
2024/03/06 03:20:09;;;;;;;9.20;5.20;;;1.80;99.90;;;;;;5013204;28;20033;-75
2024/03/06 03:22:36;;;;;;;10.48;4.65;;;1.90;99.90;;;;;;5014271;28;20029;-75
2024/03/06 03:25:02;;;;;;;9.85;6.35;;;1.90;99.90;;;;;;5014584;28;20025;-75
2024/03/06 03:27:28;;;;;;;9.90;5.30;;;1.80;99.90;;;;;;5013161;28;20432;-75
2024/03/06 03:29:54;;;;;;;9.45;5.53;;;1.70;99.90;;;;;;5014433;28;20084;-75
2024/03/06 03:32:19;;;;;;;9.30;5.20;;;1.70;99.90;;;;;;5014161;28;20022;-74
2024/03/06 03:34:45;;;;;;;13.85;5.32;;;1.70;99.90;;;;;;5012912;28;20026;-76
2024/03/06 03:37:12;;;;;;;11.15;5.95;;;1.70;99.90;;;;;;5012505;28;20034;-75
2024/03/06 03:39:38;;;;;;;10.10;5.13;;;1.70;99.90;;;;;;5012771;28;20022;-75
2024/03/06 03:42:03;;;;;;;7.00;5.00;;;1.70;99.90;;;;;;5014217;28;20065;-75
2024/03/06 03:44:29;;;;;;;16.38;6.95;;;1.70;99.90;;;;;;5014138;28;20076;-74
2024/03/06 03:46:54;;;;;;;9.20;5.72;;;1.80;99.90;;;;;;5014341;28;20026;-75
2024/03/06 03:49:20;;;;;;;9.82;5.57;;;1.70;99.90;;;;;;5012441;28;20077;-75
2024/03/06 03:51:46;;;;;;;8.35;4.82;;;1.70;99.90;;;;;;5012677;28;20018;-74
2024/03/06 03:54:12;;;;;;;9.70;5.95;;;1.60;99.90;;;;;;5014158;28;20018;-75
2024/03/06 03:56:38;;;;;;;13.10;6.38;;;1.60;99.90;;;;;;5013892;28;20026;-74
2024/03/06 03:59:03;;;;;;;15.80;5.78;;;1.70;99.90;;;;;;5012568;28;20018;-75
2024/03/06 04:01:29;;;;;;;7.72;5.30;;;1.80;99.90;;;;;;5013586;28;20358;-75
2024/03/06 04:03:55;;;;;;;10.68;5.95;;;1.70;99.90;;;;;;5013897;28;20030;-75
2024/03/06 04:06:20;;;;;;;14.93;5.90;;;1.70;99.90;;;;;;5013698;28;20439;-76
2024/03/06 04:08:46;;;;;;;18.58;5.88;;;1.70;99.90;;;;;;5013764;28;20030;-74
2024/03/06 04:11:11;;;;;;;12.35;6.90;;;1.60;99.90;;;;;;5013550;28;20431;-76
2024/03/06 04:13:38;;;;;;;13.95;8.90;;;1.60;99.90;;;;;;5013802;28;20023;-76
2024/03/06 04:16:05;;;;;;;9.60;5.18;;;1.60;99.90;;;;;;5013567;28;20030;-76
2024/03/06 04:18:35;;;;;;;10.57;5.93;;;1.60;99.90;;;;;;5013351;28;20018;-76
2024/03/06 04:21:10;;;;;;;14.18;5.43;;;1.50;99.90;;;;;;5013208;28;20018;-76
2024/03/06 04:23:36;;;;;;;15.95;5.57;;;1.50;99.90;;;;;;5013459;28;20053;-75
2024/03/06 04:26:03;;;;;;;13.70;7.00;;;1.50;99.90;;;;;;5013390;28;20050;-75
2024/03/06 04:28:29;;;;;;;10.45;5.35;;;1.40;99.90;;;;;;5013344;28;20022;-75
2024/03/06 04:30:55;;;;;;;12.05;7.15;;;1.40;99.90;;;;;;5011923;28;20476;-75
2024/03/06 04:33:20;;;;;;;13.70;6.70;;;1.40;99.90;;;;;;5012927;28;20064;-76
2024/03/06 04:35:46;;;;;;;12.10;5.90;;;1.30;99.90;;;;;;5013250;28;20058;-76
2024/03/06 04:38:12;;;;;;;12.50;6.00;;;1.30;99.90;;;;;;5013149;28;20025;-76
2024/03/06 04:40:37;;;;;;;11.20;6.00;;;1.20;99.90;;;;;;5002704;28;20480;-76
2024/03/06 04:43:03;;;;;;;10.20;6.40;;;1.20;99.90;;;;;;5011307;28;20018;-74
2024/03/06 04:45:29;;;;;;;11.43;5.72;;;1.20;99.90;;;;;;5013136;28;20052;-75
2024/03/06 04:47:55;;;;;;;12.23;6.60;;;2.00;99.90;;;;;;5009874;28;20050;-74
2024/03/06 04:50:21;;;;;;;11.07;6.25;;;1.50;99.90;;;;;;5006685;28;20443;-75
2024/03/06 04:52:46;;;;;;;8.57;5.10;;;1.60;99.90;;;;;;5014750;28;20030;-75
2024/03/06 04:55:14;;;;;;;14.00;7.05;;;1.50;99.90;;;;;;5016067;28;20025;-74
2024/03/06 04:57:42;;;;;;;11.73;6.57;;;1.50;99.90;;;;;;5013051;28;20046;-74
2024/03/06 05:00:08;;;;;;;14.80;6.43;;;1.50;99.90;;;;;;5013002;28;20045;-74
2024/03/06 05:02:35;;;;;;;9.30;5.95;;;1.40;99.90;;;;;;5012947;28;20018;-75
2024/03/06 05:05:02;;;;;;;13.45;5.75;;;1.30;99.90;;;;;;5011141;28;20492;-75
2024/03/06 05:07:29;;;;;;;10.27;5.38;;;1.30;99.90;;;;;;5011632;28;20121;-75
2024/03/06 05:09:55;;;;;;;14.05;5.63;;;1.20;99.90;;;;;;5011625;28;20428;-75
2024/03/06 05:12:20;;;;;;;10.35;5.72;;;1.30;99.90;;;;;;5012625;28;20073;-75
2024/03/06 05:14:46;;;;;;;11.40;5.32;;;1.30;99.90;;;;;;5011374;28;20121;-76
2024/03/06 05:17:12;;;;;;;10.80;5.72;;;1.40;99.90;;;;;;5012591;28;20053;-76
2024/03/06 05:19:37;;;;;;;11.10;5.75;;;1.40;99.90;;;;;;5012663;28;20026;-75
2024/03/06 05:22:03;;;;;;;16.98;7.65;;;1.50;99.90;;;;;;5012737;28;20018;-75
2024/03/06 05:24:29;;;;;;;21.05;9.57;;;1.50;99.90;;;;;;5012584;28;20071;-75
2024/03/06 05:26:55;;;;;;;13.23;7.10;;;1.40;99.90;;;;;;5011355;28;20141;-75
2024/03/06 05:29:21;;;;;;;12.60;6.68;;;1.40;99.90;;;;;;5012395;28;20065;-75
2024/03/06 05:31:46;;;;;;;8.75;5.55;;;1.40;99.90;;;;;;5012336;28;20117;-75
2024/03/06 05:34:12;;;;;;;11.15;5.45;;;1.40;99.90;;;;;;5012649;28;20052;-75
2024/03/06 05:36:38;;;;;;;14.55;6.40;;;1.50;99.90;;;;;;5011756;28;20112;-76
2024/03/06 05:39:07;;;;;;;11.38;5.97;;;1.50;99.90;;;;;;5005637;28;20024;-75
2024/03/06 05:41:33;;;;;;;16.90;8.18;;;1.50;99.90;;;;;;5001513;28;20022;-75
2024/03/06 05:43:59;;;;;;;11.32;6.78;;;1.50;99.90;;;;;;5011394;28;20026;-75
2024/03/06 05:46:26;;;;;;;14.70;6.55;;;1.50;99.90;;;;;;5010931;28;20022;-77
2024/03/06 05:48:51;;;;;;;16.98;6.40;;;1.60;99.90;;;;;;5010886;28;20029;-74
2024/03/06 05:51:17;;;;;;;8.68;6.35;;;1.70;99.90;;;;;;5008446;28;20495;-75
2024/03/06 05:53:44;;;;;;;12.43;6.38;;;1.70;99.90;;;;;;5009736;28;20034;-74
2024/03/06 05:56:10;;;;;;;17.00;6.03;;;1.70;99.90;;;;;;5011852;28;20030;-73
2024/03/06 05:58:36;;;;;;;11.32;5.45;;;1.70;99.90;;;;;;5014241;28;20551;-75
2024/03/06 06:01:03;;;;;;;15.93;7.10;;;1.80;99.90;;;;;;5010947;28;20034;-74
2024/03/06 06:03:31;;;;;;;15.07;8.45;;;1.90;99.90;;;;;;5011009;28;20090;-74
2024/03/06 06:05:58;;;;;;;15.05;7.57;;;2.00;99.90;;;;;;5012215;28;20049;-74
2024/03/06 06:08:24;;;;;;;23.65;8.77;;;1.90;99.90;;;;;;5011772;28;20105;-74
2024/03/06 06:10:54;;;;;;;19.00;8.95;;;2.00;99.90;;;;;;5011942;28;20472;-74
2024/03/06 06:13:21;;;;;;;17.30;7.05;;;2.00;99.90;;;;;;5012107;28;20025;-74
2024/03/06 06:15:46;;;;;;;16.50;7.20;;;2.10;99.90;;;;;;5011654;28;20030;-74
2024/03/06 06:18:12;;;;;;;11.15;6.38;;;2.20;99.90;;;;;;5014222;28;20022;-75
2024/03/06 06:20:40;;;;;;;12.25;6.80;;;2.30;99.90;;;;;;5014609;28;20029;-74
2024/03/06 06:23:06;;;;;;;16.13;7.05;;;2.30;99.90;;;;;;5012174;28;20018;-74
2024/03/06 06:25:31;;;;;;;10.38;6.43;;;2.40;99.90;;;;;;5010886;28;20518;-74
2024/03/06 06:27:57;;;;;;;13.93;7.05;;;2.40;99.90;;;;;;5014193;28;20040;-74
2024/03/06 06:30:23;;;;;;;14.80;6.72;;;2.40;99.90;;;;;;5015378;28;20030;-74
2024/03/06 06:32:48;;;;;;;18.35;7.05;;;2.50;99.90;;;;;;5015209;28;20468;-75
2024/03/06 06:35:14;;;;;;;17.35;8.50;;;6.20;99.90;;;;;;5014293;28;20026;-73
2024/03/06 06:37:39;;;;;;;15.30;9.40;;;6.80;99.90;;;;;;5014199;28;20021;-74
2024/03/06 06:40:07;;;;;;;13.95;6.85;;;6.40;99.90;;;;;;5013209;28;20020;-75
2024/03/06 06:42:34;;;;;;;12.80;7.15;;;5.60;99.90;;;;;;5015052;28;20458;-75
2024/03/06 06:45:00;;;;;;;13.05;6.43;;;4.90;99.90;;;;;;5013513;28;20037;-75
2024/03/06 06:47:26;;;;;;;10.55;5.28;;;4.50;99.90;;;;;;5013889;28;20412;-75
2024/03/06 06:49:52;;;;;;;18.27;7.30;;;4.20;99.90;;;;;;5015047;28;20034;-75
2024/03/06 06:52:19;;;;;;;10.57;5.45;;;3.90;99.90;;;;;;5013689;28;20498;-74
2024/03/06 06:54:44;;;;;;;11.02;5.63;;;3.80;99.90;;;;;;5015108;28;20492;-74
2024/03/06 06:57:10;;;;;;;15.45;6.68;;;3.60;99.90;;;;;;5015170;28;20026;-75
2024/03/06 06:59:36;;;;;;;12.98;7.95;;;3.60;99.90;;;;;;5014797;28;20022;-74
2024/03/06 07:02:02;;;;;;;12.52;5.85;;;3.50;99.90;;;;;;5014926;28;20539;-73
2024/03/06 07:04:28;;;;;;;15.68;6.82;;;3.50;99.90;;;;;;5015208;28;20033;-75
2024/03/06 07:06:54;;;;;;;16.08;6.72;;;3.40;99.90;;;;;;5014954;28;20396;-74
2024/03/06 07:09:20;;;;;;;12.35;7.10;;;3.40;99.90;;;;;;5014671;28;20030;-74
2024/03/06 07:11:45;;;;;;;13.52;6.68;;;3.50;99.90;;;;;;5013531;28;20473;-74
2024/03/06 07:14:14;;;;;;;13.10;6.78;;;3.60;99.90;;;;;;5014916;28;20488;-73
2024/03/06 07:16:43;;;;;;;16.73;6.75;;;3.80;99.90;;;;;;5014932;28;20034;-73
2024/03/06 07:19:09;;;;;;;15.93;6.35;;;3.90;99.90;;;;;;5014615;28;20080;-74
2024/03/06 07:21:35;;;;;;;18.20;7.35;;;4.00;99.90;;;;;;5014707;28;20022;-75
2024/03/06 07:24:00;;;;;;;14.27;6.57;;;4.00;99.90;;;;;;5014861;28;20222;-74
2024/03/06 07:26:29;;;;;;;12.27;6.75;;;4.20;99.90;;;;;;5014633;28;20022;-74
2024/03/06 07:28:54;;;;;;;11.32;6.28;;;4.20;99.90;;;;;;5014182;28;20109;-74
2024/03/06 07:31:20;;;;;;;13.65;7.22;;;4.40;99.90;;;;;;5014477;28;20080;-74
2024/03/06 07:33:45;;;;;;;14.55;6.47;;;4.50;99.90;;;;;;5014167;28;20486;-74
2024/03/06 07:36:11;;;;;;;11.65;5.72;;;4.70;99.90;;;;;;5014676;28;20034;-74
2024/03/06 07:38:37;;;;;;;11.95;6.80;;;4.80;99.90;;;;;;5013137;28;20022;-74
2024/03/06 07:41:02;;;;;;;11.40;6.68;;;4.90;99.90;;;;;;5012799;28;20018;-74
2024/03/06 07:43:28;;;;;;;12.88;7.32;;;5.00;99.90;;;;;;5013211;28;20370;-74
2024/03/06 07:45:53;;;;;;;12.95;7.22;;;5.20;99.90;;;;;;5014282;28;20037;-74
2024/03/06 07:48:19;;;;;;;9.77;6.10;;;5.30;99.90;;;;;;5013007;28;20104;-74
2024/03/06 07:50:45;;;;;;;13.82;7.38;;;5.40;99.90;;;;;;5012997;28;20523;-73
2024/03/06 07:53:11;;;;;;;20.88;8.27;;;5.50;99.90;;;;;;5012831;28;20022;-74
2024/03/06 07:55:38;;;;;;;15.57;6.60;;;5.60;99.90;;;;;;5014149;28;20057;-74
2024/03/06 07:58:04;;;;;;;12.65;7.75;;;5.70;99.90;;;;;;5014146;28;20384;-74
2024/03/06 08:00:31;;;;;;;14.43;6.95;;;5.80;99.90;;;;;;5013977;28;20022;-74
2024/03/06 08:02:57;;;;;;;12.80;6.63;;;6.00;99.90;;;;;;5013906;28;20021;-73
2024/03/06 08:05:22;;;;;;;18.65;9.05;;;6.10;99.90;;;;;;5014049;28;20026;-74
2024/03/06 08:07:48;;;;;;;16.95;7.68;;;6.20;99.90;;;;;;5013920;28;20030;-74
2024/03/06 08:10:14;;;;;;;14.65;7.50;;;6.20;99.90;;;;;;5013840;28;20079;-74
2024/03/06 08:12:43;;;;;;;19.20;8.15;;;6.40;99.90;;;;;;5013610;28;20443;-75
2024/03/06 08:15:13;;;;;;;14.80;7.68;;;6.50;99.90;;;;;;5013795;28;20022;-75
2024/03/06 08:17:41;;;;;;;11.52;6.70;;;6.70;99.90;;;;;;5014042;28;20543;-74
2024/03/06 08:20:08;;;;;;;15.10;8.18;;;6.80;99.90;;;;;;5013850;28;20022;-74
2024/03/06 08:22:39;;;;;;;14.65;7.93;;;6.90;99.90;;;;;;5014113;28;20033;-74
2024/03/06 08:25:05;;;;;;;15.00;8.35;;;7.00;99.90;;;;;;5012744;28;20650;-74
2024/03/06 08:27:30;;;;;;;16.38;8.27;;;7.10;99.90;;;;;;5013367;28;20049;-75
2024/03/06 08:29:56;;;;;;;14.80;8.23;;;7.30;99.90;;;;;;5012251;28;20033;-74
2024/03/06 08:32:22;;;;;;;16.83;7.82;;;7.50;99.90;;;;;;5012749;28;20455;-74
2024/03/06 08:34:48;;;;;;;13.95;7.32;;;7.60;99.90;;;;;;5013655;28;20026;-75
2024/03/06 08:37:13;;;;;;;13.52;7.45;;;7.70;99.90;;;;;;5013404;28;20109;-73
2024/03/06 08:39:39;;;;;;;16.30;8.57;;;7.90;99.90;;;;;;5011476;28;20022;-75
2024/03/06 08:42:05;;;;;;;16.10;8.23;;;8.00;99.90;;;;;;5012825;28;20025;-74
2024/03/06 08:44:31;;;;;;;17.92;9.30;;;8.30;99.90;;;;;;5012170;28;20026;-72
2024/03/06 08:46:57;;;;;;;13.38;7.30;;;8.40;99.90;;;;;;5012995;28;20048;-76
2024/03/06 08:49:23;;;;;;;13.38;8.07;;;8.50;99.90;;;;;;5012843;28;20038;-74
2024/03/06 08:51:48;;;;;;;14.18;7.70;;;8.70;99.90;;;;;;5013103;28;20557;-75
2024/03/06 08:54:14;;;;;;;17.92;8.13;;;8.80;99.90;;;;;;5012942;28;20053;-74
2024/03/06 08:56:39;;;;;;;17.42;8.20;;;9.00;99.90;;;;;;5012744;28;20030;-73
2024/03/06 08:59:05;;;;;;;17.40;8.13;;;9.10;99.90;;;;;;5012988;28;20388;-74
2024/03/06 09:01:30;;;;;;;17.92;7.80;;;9.20;99.90;;;;;;5012786;28;20026;-74
2024/03/06 09:03:57;;;;;;;15.18;7.63;;;9.30;99.90;;;;;;5012015;28;20037;-74
2024/03/06 09:06:23;;;;;;;15.32;8.25;;;9.40;99.90;;;;;;5013517;28;20022;-73
2024/03/06 09:08:48;;;;;;;15.20;7.68;;;9.50;99.90;;;;;;5012053;28;20072;-72
2024/03/06 09:11:14;;;;;;;13.73;8.60;;;9.60;99.90;;;;;;5011634;28;20036;-74
2024/03/06 09:13:40;;;;;;;12.93;7.15;;;9.70;99.90;;;;;;5013098;28;20041;-74
2024/03/06 09:16:06;;;;;;;12.55;7.22;;;9.90;99.90;;;;;;5013189;28;20026;-73
2024/03/06 09:18:31;;;;;;;13.50;7.03;;;10.00;99.90;;;;;;5013067;28;20030;-72
2024/03/06 09:20:57;;;;;;;11.23;6.50;;;10.00;99.90;;;;;;5013120;28;20018;-73
2024/03/06 09:23:23;;;;;;;12.65;6.63;;;10.10;99.90;;;;;;5011970;28;20017;-76
2024/03/06 09:25:49;;;;;;;11.35;5.47;;;10.20;99.90;;;;;;5011758;28;20026;-74
2024/03/06 09:28:15;;;;;;;14.98;7.32;;;10.20;99.90;;;;;;5012975;28;20022;-73
2024/03/06 09:30:41;;;;;;;14.38;6.43;;;10.20;99.90;;;;;;5011563;28;20089;-74
2024/03/06 09:33:07;;;;;;;12.18;6.60;;;10.10;99.90;;;;;;5011077;28;20117;-75
2024/03/06 09:35:32;;;;;;;12.57;7.20;;;10.10;99.90;;;;;;5010970;28;20477;-74
2024/03/06 09:37:58;;;;;;;10.55;6.38;;;10.20;99.90;;;;;;5011030;28;20429;-73
2024/03/06 09:40:24;;;;;;;13.18;7.47;;;10.30;96.60;;;;;;5010934;28;20026;-74
2024/03/06 09:42:51;;;;;;;13.60;7.18;;;10.40;95.50;;;;;;5010772;28;20061;-76
2024/03/06 09:45:17;;;;;;;43.03;14.75;;;10.40;95.60;;;;;;5012232;28;20108;-73
2024/03/06 09:47:44;;;;;;;15.73;8.13;;;10.60;94.20;;;;;;5012334;28;20396;-74
2024/03/06 09:50:10;;;;;;;15.25;6.95;;;10.70;93.70;;;;;;5011905;28;20037;-74
2024/03/06 09:52:36;;;;;;;7.43;4.57;;;10.60;92.30;;;;;;5013838;28;20069;-75
2024/03/06 09:55:03;;;;;;;11.30;6.57;;;10.60;92.90;;;;;;5016830;28;20034;-74
2024/03/06 09:57:29;;;;;;;10.82;5.53;;;10.80;92.60;;;;;;5017206;28;20025;-73
2024/03/06 09:59:55;;;;;;;10.65;7.07;;;10.90;92.10;;;;;;5016463;28;20033;-74
2024/03/06 10:02:38;;;;;;;13.48;7.55;;;11.10;91.10;;;;;;5015085;28;20029;-74
2024/03/06 10:05:05;;;;;;;12.43;6.60;;;11.20;90.80;;;;;;5015404;28;20030;-74
2024/03/06 10:07:31;;;;;;;10.90;6.50;;;11.30;90.30;;;;;;5016860;28;20125;-74
2024/03/06 10:09:57;;;;;;;13.23;7.03;;;11.40;90.50;;;;;;5015625;28;20488;-74
2024/03/06 10:12:22;;;;;;;11.90;6.28;;;11.50;90.60;;;;;;5015511;28;20034;-74
2024/03/06 10:14:52;;;;;;;11.43;7.10;;;11.50;90.10;;;;;;5016961;28;20026;-73
2024/03/06 10:17:26;;;;;;;13.10;6.78;;;11.50;89.70;;;;;;5016581;28;20036;-73
2024/03/06 10:19:52;;;;;;;13.82;7.30;;;11.60;89.00;;;;;;5016889;28;20080;-73
2024/03/06 10:22:24;;;;;;;10.65;6.07;;;11.60;86.50;;;;;;5016193;28;20030;-74
2024/03/06 10:24:49;;;;;;;14.10;6.28;;;11.60;85.30;;;;;;5015191;28;20029;-74
2024/03/06 10:27:17;;;;;;;10.60;6.22;;;11.70;85.50;;;;;;5012204;28;20102;-76
2024/03/06 10:29:43;;;;;;;13.25;7.13;;;11.70;88.80;;;;;;5008709;28;20118;-75
2024/03/06 10:32:08;;;;;;;12.75;6.18;;;11.70;85.40;;;;;;5001839;28;20077;-75
2024/03/06 10:34:34;;;;;;;12.35;6.43;;;11.60;84.40;;;;;;5012997;28;20030;-75
2024/03/06 10:37:03;;;;;;;12.57;6.03;;;11.80;85.20;;;;;;5016949;28;20088;-75
2024/03/06 10:39:33;;;;;;;10.93;6.10;;;12.00;86.60;;;;;;5012183;28;20030;-76
2024/03/06 10:42:02;;;;;;;14.88;5.90;;;12.00;82.60;;;;;;5016492;28;20036;-75
2024/03/06 10:44:28;;;;;;;16.85;7.55;;;12.00;82.10;;;;;;5015487;28;20065;-76
2024/03/06 10:47:02;;;;;;;12.02;7.97;;;11.90;81.20;;;;;;5011980;28;20027;-76
2024/03/06 10:49:30;;;;;;;12.63;7.18;;;12.00;81.90;;;;;;5013436;28;20050;-76
2024/03/06 10:52:00;;;;;;;13.65;7.55;;;12.00;81.50;;;;;;5015327;28;20026;-75
2024/03/06 10:54:30;;;;;;;14.35;6.20;;;12.20;82.10;;;;;;5016609;28;20050;-74
2024/03/06 10:56:56;;;;;;;12.07;6.28;;;12.30;82.00;;;;;;5016576;28;20029;-75
2024/03/06 10:59:28;;;;;;;13.75;6.95;;;12.50;82.50;;;;;;5015342;28;20026;-76
2024/03/06 11:01:55;;;;;;;13.18;6.93;;;12.50;79.50;;;;;;5015244;28;20026;-75
2024/03/06 11:04:41;;;;;;;14.05;6.38;;;12.40;79.20;;;;;;5011886;28;20050;-80
2024/03/06 11:07:07;;;;;;;13.25;6.55;;;12.40;78.70;;;;;;5014564;28;20018;-75
2024/03/06 11:09:41;;;;;;;13.85;7.07;;;12.40;81.10;;;;;;5016050;28;20108;-77
2024/03/06 11:12:07;;;;;;;17.08;6.70;;;12.40;79.30;;;;;;5015923;28;20018;-75
2024/03/06 11:14:37;;;;;;;12.40;6.25;;;12.30;77.90;;;;;;5015940;28;20026;-74
2024/03/06 11:17:09;;;;;;;11.60;6.30;;;12.50;81.90;;;;;;5015730;28;20030;-75
2024/03/06 11:20:00;;;;;;;11.77;8.07;;;12.50;82.30;;;;;;5014296;28;20049;-75
2024/03/06 11:22:57;;;;;;;15.18;7.75;;;12.30;76.30;;;;;;5014905;28;20026;-75
2024/03/06 11:25:50;;;;;;;10.02;6.53;;;12.30;81.30;;;;;;5015419;28;20400;-74
2024/03/06 11:28:18;;;;;;;13.25;6.93;;;12.50;80.50;;;;;;5011352;28;20447;-75
2024/03/06 11:31:04;;;;;;;14.15;8.27;;;12.60;78.30;;;;;;5015534;28;20029;-75
2024/03/06 11:33:39;;;;;;;15.65;7.90;;;12.90;78.10;;;;;;5016167;28;20030;-74
2024/03/06 11:36:20;;;;;;;13.27;7.50;;;13.00;80.20;;;;;;5012197;28;20049;-75
2024/03/06 11:38:59;;;;;;;10.85;6.15;;;13.30;78.00;;;;;;5012500;28;20021;-75
2024/03/06 11:41:27;;;;;;;10.75;6.22;;;13.40;74.30;;;;;;5006616;28;20037;-75
2024/03/06 11:43:55;;;;;;;13.40;6.10;;;13.30;70.50;;;;;;5014408;28;20060;-76
2024/03/06 11:46:21;;;;;;;12.25;6.07;;;13.20;72.10;;;;;;5015168;28;20022;-74
2024/03/06 11:48:54;;;;;;;14.13;5.97;;;13.10;69.70;;;;;;5015612;28;20105;-76
2024/03/06 11:51:20;;;;;;;10.52;5.93;;;13.00;69.80;;;;;;5015300;28;20361;-73
2024/03/06 11:53:49;;;;;;;11.75;6.97;;;13.00;71.40;;;;;;5013808;28;20024;-74
2024/03/06 11:56:15;;;;;;;11.02;5.93;;;13.10;70.70;;;;;;5015129;28;20097;-74
2024/03/06 11:58:40;;;;;;;10.65;6.05;;;13.30;70.90;;;;;;5015462;28;20026;-74
2024/03/06 12:01:06;;;;;;;11.63;6.90;;;13.30;70.90;;;;;;5014958;28;20492;-74
2024/03/06 12:03:32;;;;;;;11.68;6.05;;;13.30;69.50;;;;;;5015786;28;20109;-73
2024/03/06 12:05:58;;;;;;;9.38;5.20;;;13.30;69.60;;;;;;5014903;28;20476;-74
2024/03/06 12:08:24;;;;;;;10.75;5.57;;;13.30;68.80;;;;;;5014822;28;20030;-74
2024/03/06 12:10:50;;;;;;;11.95;7.13;;;13.30;67.80;;;;;;5013455;28;20026;-75
2024/03/06 12:13:16;;;;;;;9.65;5.85;;;13.30;68.70;;;;;;5014708;28;20033;-74
2024/03/06 12:15:45;;;;;;;8.48;4.93;;;13.50;69.90;;;;;;5013442;28;20068;-73
2024/03/06 12:18:11;;;;;;;7.00;4.60;;;13.50;69.20;;;;;;5009341;28;20036;-74
2024/03/06 12:20:45;;;;;;;8.18;4.60;;;13.60;67.20;;;;;;5013033;28;20022;-75
2024/03/06 12:23:23;;;;;;;8.00;4.35;;;13.60;72.50;;;;;;5007474;28;20019;-73
2024/03/06 12:25:49;;;;;;;9.40;4.18;;;13.90;66.70;;;;;;5012821;28;20037;-73
2024/03/06 12:28:15;;;;;;;7.35;4.95;;;13.90;66.00;;;;;;5014168;28;20026;-74
2024/03/06 12:30:44;;;;;;;10.45;4.70;;;13.90;64.00;;;;;;5012862;28;20404;-74
2024/03/06 12:33:14;;;;;;;8.63;4.60;;;14.00;64.10;;;;;;5013744;28;20063;-73
2024/03/06 12:35:40;;;;;;;8.70;5.15;;;14.00;65.70;;;;;;5013262;28;20026;-74
2024/03/06 12:38:15;;;;;;;9.15;4.40;;;14.00;63.80;;;;;;5014074;28;20026;-73
2024/03/06 12:40:42;;;;;;;8.10;4.43;;;13.80;63.40;;;;;;5014249;28;20396;-73
2024/03/06 12:43:07;;;;;;;7.18;4.15;;;13.90;64.90;;;;;;5013948;28;20065;-74